Terminal Aerodrome Forecast
Issued by NWS Louisville, KY

Home | Current Version | Previous Version | Text Only | Print | Product List | Glossary On
Versions: 1 2 3 4 5 6 7 8 9 10 11 12 13 14 15 16 17 18 19 20
081
FTUS43 KLMK 221729
TAFBWG
TAF
KBWG 221729Z 2218/2318 29007KT P6SM VCTS SCT035CB
     FM222300 VRB03KT P6SM SCT050
     FM230800 VRB03KT 4SM BR SCT250
     FM231300 17004KT P6SM SCT050 SCT250=

USA.gov is the U.S. government's official web portal to all federal, state and local government web resources and services.